Terminal Aerodrome Forecast
Issued by NWS

Home | Current Version | Previous Version | Text Only | Print | Product List | Glossary On
Versions: 1 2 3 4 5 6 7 8 9 10 11 12 13 14 15
000
FTUS43 KICT 090523
TAFHUT
TAF
KHUT 090523Z 0906/1006 VRB03KT P6SM FEW130
     FM091200 13004KT P6SM SCT040 BKN070
     FM091600 16012KT P6SM SCT040 BKN070
     FM092300 16008KT P6SM BKN070=

USA.gov is the U.S. government's official web portal to all federal, state and local government web resources and services.